Time;durP1;ratioP1;P1;durP2;ratioP2;P2;SDS_P1;SDS_P2;PMS_P1;PMS_P2;Temp;Humidity;BMP_temperature;BMP_pressure;BME280_temperature;BME280_humidity;BME280_pressure;Samples;Min_cycle;Max_cycle;Signal;HPM_P1;HPM_P2
2023/02/12 00:01:24;;;;;;;31.15;17.52;;;8.20;99.90;;;;;;5000575;28;20029;-85
2023/02/12 00:03:50;;;;;;;28.05;17.17;;;8.10;99.90;;;;;;5015653;28;20107;-86
2023/02/12 00:06:16;;;;;;;27.65;16.73;;;8.20;99.90;;;;;;5003574;28;20073;-84
2023/02/12 00:08:42;;;;;;;23.15;15.50;;;8.20;99.90;;;;;;4999143;28;20042;-83
2023/02/12 00:14:02;;;;;;;22.02;13.35;;;8.10;99.90;;;;;;4999631;28;20030;-84
2023/02/12 00:16:28;;;;;;;18.08;12.48;;;8.20;99.90;;;;;;5000788;28;20084;-84
2023/02/12 00:18:55;;;;;;;18.00;11.63;;;8.20;99.90;;;;;;4999263;28;20096;-83
2023/02/12 00:21:24;;;;;;;15.73;11.32;;;8.20;99.90;;;;;;4999550;28;21988;-83
2023/02/12 00:23:49;;;;;;;17.23;11.52;;;8.20;99.90;;;;;;4999288;28;20052;-83
2023/02/12 00:26:21;;;;;;;15.55;10.48;;;8.10;99.90;;;;;;5015051;28;20062;-84
2023/02/12 00:28:47;;;;;;;15.52;10.93;;;8.20;99.90;;;;;;5001809;28;20033;-84
2023/02/12 00:31:16;;;;;;;14.68;10.95;;;8.20;99.90;;;;;;5003922;28;20555;-84
2023/02/12 00:33:42;;;;;;;16.00;10.85;;;8.10;99.90;;;;;;5005676;28;20038;-85
2023/02/12 00:36:14;;;;;;;13.98;10.43;;;8.10;99.90;;;;;;5002132;28;20038;-84
2023/02/12 00:38:39;;;;;;;14.73;10.10;;;8.10;99.90;;;;;;5015868;28;20076;-84
2023/02/12 00:41:05;;;;;;;17.67;11.02;;;8.00;99.90;;;;;;4999284;28;20034;-83
2023/02/12 00:43:30;;;;;;;17.73;12.52;;;8.00;99.90;;;;;;5004208;28;20214;-83
2023/02/12 00:45:56;;;;;;;19.90;12.50;;;8.00;99.90;;;;;;5005380;28;20065;-84
2023/02/12 00:48:22;;;;;;;19.33;12.77;;;7.90;99.90;;;;;;5000327;28;20046;-84
2023/02/12 00:50:49;;;;;;;18.20;12.80;;;7.90;99.90;;;;;;5005387;28;20018;-84
2023/02/12 00:53:15;;;;;;;20.48;12.50;;;7.90;99.90;;;;;;5001415;28;20029;-84
2023/02/12 00:55:40;;;;;;;20.17;13.95;;;7.90;99.90;;;;;;5016265;28;20022;-83
2023/02/12 00:58:06;;;;;;;17.48;12.40;;;7.90;99.90;;;;;;5000533;28;20026;-83
2023/02/12 01:00:33;;;;;;;16.50;12.05;;;7.90;99.90;;;;;;5001162;28;20029;-84
2023/02/12 01:02:59;;;;;;;16.05;10.68;;;7.80;99.90;;;;;;5017465;28;20033;-85
2023/02/12 01:05:24;;;;;;;15.45;11.05;;;7.80;99.90;;;;;;5001525;28;20080;-83
2023/02/12 01:07:51;;;;;;;16.27;11.63;;;7.70;99.90;;;;;;4999822;28;20441;-84
2023/02/12 01:10:17;;;;;;;17.48;11.82;;;7.70;99.90;;;;;;4997557;28;20534;-83
2023/02/12 01:12:43;;;;;;;15.25;10.75;;;7.70;99.90;;;;;;4999435;28;20034;-84
2023/02/12 01:15:09;;;;;;;18.20;11.32;;;7.70;99.90;;;;;;4999133;28;20044;-83
2023/02/12 01:17:36;;;;;;;16.08;10.25;;;7.70;99.90;;;;;;5003537;28;20020;-83
2023/02/12 01:20:04;;;;;;;17.38;11.43;;;7.70;99.90;;;;;;4998814;28;20057;-84
2023/02/12 01:22:30;;;;;;;15.63;10.88;;;7.60;99.90;;;;;;5000493;28;20029;-84
2023/02/12 01:24:56;;;;;;;17.63;12.73;;;7.60;99.90;;;;;;5017033;28;22195;-84
2023/02/12 01:27:21;;;;;;;17.17;12.13;;;7.60;99.90;;;;;;4998684;28;20507;-84
2023/02/12 01:29:47;;;;;;;17.90;11.43;;;7.60;99.90;;;;;;5005555;28;20014;-84
2023/02/12 01:32:12;;;;;;;15.23;10.60;;;7.60;99.90;;;;;;4998708;28;20452;-83
2023/02/12 01:34:38;;;;;;;16.65;11.57;;;7.60;99.90;;;;;;5019344;28;20030;-85
2023/02/12 01:37:03;;;;;;;17.90;11.18;;;7.60;99.90;;;;;;5001804;28;20444;-87
2023/02/12 01:39:29;;;;;;;15.90;11.10;;;7.60;99.90;;;;;;5001179;28;20349;-85
2023/02/12 01:41:55;;;;;;;16.65;10.30;;;7.60;99.90;;;;;;5001665;28;20118;-84
2023/02/12 01:44:23;;;;;;;14.52;10.48;;;7.60;99.90;;;;;;5015241;28;20092;-85
2023/02/12 01:47:00;;;;;;;15.27;11.18;;;7.60;99.90;;;;;;5003800;28;20435;-85
2023/02/12 01:49:29;;;;;;;15.93;10.25;;;7.60;99.90;;;;;;5000129;28;20148;-83
2023/02/12 01:52:04;;;;;;;14.40;10.32;;;7.50;99.90;;;;;;5013748;28;20033;-83
2023/02/12 01:54:32;;;;;;;14.88;10.35;;;7.60;99.90;;;;;;5015682;28;20550;-84
2023/02/12 01:56:59;;;;;;;14.68;10.85;;;7.50;99.90;;;;;;4997859;28;20026;-84
2023/02/12 01:59:25;;;;;;;14.63;10.25;;;7.50;99.90;;;;;;5014204;28;20114;-85
2023/02/12 02:01:51;;;;;;;15.27;10.63;;;7.50;99.90;;;;;;5002241;28;20044;-85
2023/02/12 02:04:24;;;;;;;16.20;10.30;;;7.40;99.90;;;;;;4997156;28;20101;-83
2023/02/12 02:06:55;;;;;;;14.10;10.35;;;7.40;99.90;;;;;;4997386;28;20105;-83
2023/02/12 02:09:21;;;;;;;16.42;10.13;;;7.40;99.90;;;;;;5000266;28;20021;-82
2023/02/12 02:14:31;;;;;;;13.60;9.80;;;7.40;99.90;;;;;;4999712;28;20527;-85
2023/02/12 02:17:05;;;;;;;15.88;10.65;;;7.40;99.90;;;;;;4999672;28;20053;-83
2023/02/12 02:20:15;;;;;;;15.70;10.50;;;7.40;99.90;;;;;;5012559;28;20022;-83
2023/02/12 02:23:18;;;;;;;15.35;10.80;;;7.30;99.90;;;;;;4996602;28;20040;-83
2023/02/12 02:26:13;;;;;;;15.02;10.38;;;7.30;99.90;;;;;;5011974;28;20030;-84
2023/02/12 02:28:59;;;;;;;15.90;10.02;;;7.30;99.90;;;;;;5013493;28;20041;-85
2023/02/12 02:31:45;;;;;;;14.18;9.95;;;7.30;99.90;;;;;;5001790;28;20040;-84
2023/02/12 02:34:20;;;;;;;13.32;9.98;;;7.20;99.90;;;;;;4999039;28;20018;-85
2023/02/12 02:36:52;;;;;;;13.45;10.10;;;7.20;99.90;;;;;;5003647;28;20067;-85
2023/02/12 02:39:32;;;;;;;15.10;10.40;;;7.10;99.90;;;;;;5001126;28;20037;-85
2023/02/12 02:42:10;;;;;;;16.15;10.23;;;7.10;99.90;;;;;;4998803;28;20038;-84
2023/02/12 02:45:03;;;;;;;15.35;10.75;;;7.10;99.90;;;;;;4998367;28;20046;-84
2023/02/12 02:47:36;;;;;;;13.32;10.02;;;7.10;99.90;;;;;;5002365;28;20488;-85
2023/02/12 02:50:06;;;;;;;14.60;9.82;;;7.10;99.90;;;;;;5003029;28;20052;-84
2023/02/12 02:52:58;;;;;;;13.55;9.27;;;7.00;99.90;;;;;;4999840;28;20037;-83
2023/02/12 02:55:27;;;;;;;13.05;9.05;;;7.00;99.90;;;;;;5013159;28;20553;-83
2023/02/12 02:57:56;;;;;;;12.10;9.07;;;7.00;99.90;;;;;;5003539;28;20034;-87
2023/02/12 03:00:42;;;;;;;15.30;9.38;;;7.00;99.90;;;;;;4998611;28;20500;-84
2023/02/12 03:03:17;;;;;;;16.17;9.90;;;7.00;99.90;;;;;;4997947;28;20360;-84
2023/02/12 03:05:46;;;;;;;15.32;10.18;;;6.90;99.90;;;;;;5002746;28;20033;-84
2023/02/12 03:08:33;;;;;;;14.32;10.10;;;6.90;99.90;;;;;;4997894;28;20391;-85
2023/02/12 03:11:28;;;;;;;15.55;10.30;;;6.90;99.90;;;;;;5000318;28;20033;-86
2023/02/12 03:14:19;;;;;;;14.23;10.30;;;6.90;99.90;;;;;;5015203;28;20095;-85
2023/02/12 03:16:53;;;;;;;14.25;10.00;;;6.90;99.90;;;;;;4993391;28;20034;-84
2023/02/12 03:19:23;;;;;;;18.40;11.05;;;6.90;99.90;;;;;;5003840;28;20746;-84
2023/02/12 03:22:13;;;;;;;17.08;11.13;;;6.90;99.90;;;;;;5009570;28;20021;-84
2023/02/12 03:24:54;;;;;;;17.85;10.85;;;6.80;99.90;;;;;;5036007;28;20034;-83
2023/02/12 03:27:31;;;;;;;16.88;11.48;;;6.80;99.90;;;;;;5020547;28;20045;-82
2023/02/12 03:29:57;;;;;;;16.63;10.40;;;6.90;99.90;;;;;;5000519;28;20038;-84
2023/02/12 03:32:32;;;;;;;16.67;11.00;;;6.80;99.90;;;;;;5002891;28;20952;-84
2023/02/12 03:35:07;;;;;;;15.38;10.52;;;6.70;99.90;;;;;;4999885;28;20026;-83
2023/02/12 03:37:35;;;;;;;14.88;10.00;;;6.70;99.90;;;;;;5013682;28;20034;-85
2023/02/12 03:40:42;;;;;;;15.32;11.50;;;6.70;99.90;;;;;;5001311;28;20030;-83
2023/02/12 03:43:29;;;;;;;14.23;10.40;;;6.70;99.90;;;;;;5008675;28;20065;-84
2023/02/12 03:46:00;;;;;;;17.85;11.57;;;6.70;99.90;;;;;;5002749;28;20053;-85
2023/02/12 03:48:44;;;;;;;15.10;9.05;;;6.60;99.90;;;;;;5015540;28;20411;-85
2023/02/12 03:51:19;;;;;;;17.17;11.13;;;6.70;99.90;;;;;;5004284;28;20025;-86
2023/02/12 03:53:46;;;;;;;15.15;11.05;;;6.60;99.90;;;;;;5003354;28;20468;-86
2023/02/12 03:56:35;;;;;;;15.77;11.00;;;6.60;99.90;;;;;;5013780;28;20057;-86
2023/02/12 03:59:03;;;;;;;17.77;11.60;;;6.60;99.90;;;;;;5000028;28;20037;-86
2023/02/12 04:01:30;;;;;;;16.73;12.07;;;6.60;99.90;;;;;;5003143;28;20502;-87
2023/02/12 04:03:57;;;;;;;16.48;11.00;;;6.60;99.90;;;;;;4997001;28;20375;-85
2023/02/12 04:06:25;;;;;;;18.73;12.15;;;6.60;99.90;;;;;;4999719;28;20559;-84
2023/02/12 04:08:52;;;;;;;15.13;10.73;;;6.60;99.90;;;;;;4995117;28;20513;-83
2023/02/12 04:11:28;;;;;;;15.23;10.77;;;6.70;99.90;;;;;;5000654;28;20030;-84
2023/02/12 04:14:07;;;;;;;16.08;11.00;;;6.70;99.90;;;;;;4996758;28;20065;-84
2023/02/12 04:17:11;;;;;;;14.23;10.05;;;6.70;99.90;;;;;;5010363;28;20042;-83
2023/02/12 04:20:02;;;;;;;16.20;10.85;;;6.70;99.90;;;;;;4980259;28;20042;-84
2023/02/12 04:22:44;;;;;;;14.30;10.15;;;6.70;99.90;;;;;;4997627;28;20030;-83
2023/02/12 04:25:21;;;;;;;15.18;10.20;;;6.70;99.90;;;;;;5010624;28;20354;-82
2023/02/12 04:28:30;;;;;;;14.23;10.23;;;6.80;99.90;;;;;;4997042;28;20038;-81
2023/02/12 04:31:05;;;;;;;13.77;10.13;;;6.80;99.90;;;;;;4990349;28;20030;-84
2023/02/12 04:33:41;;;;;;;14.90;10.38;;;6.80;99.90;;;;;;5000819;28;20049;-83
2023/02/12 04:36:20;;;;;;;15.57;10.65;;;6.80;99.90;;;;;;4997789;28;20473;-83
2023/02/12 04:38:51;;;;;;;14.45;10.45;;;6.80;99.90;;;;;;4999483;28;20076;-85
2023/02/12 04:41:17;;;;;;;13.82;9.63;;;6.80;99.90;;;;;;5000600;28;20080;-86
2023/02/12 04:43:42;;;;;;;14.82;10.30;;;6.80;99.90;;;;;;5003317;28;20054;-85
2023/02/12 04:46:08;;;;;;;13.10;9.27;;;6.80;99.90;;;;;;5000997;28;20021;-84
2023/02/12 04:48:55;;;;;;;15.10;10.52;;;6.90;99.90;;;;;;5003806;28;20046;-84
2023/02/12 04:51:21;;;;;;;15.73;10.30;;;6.90;99.90;;;;;;5017558;28;20931;-84
2023/02/12 04:53:47;;;;;;;15.75;10.20;;;6.90;99.90;;;;;;5005432;28;20038;-85
2023/02/12 04:56:13;;;;;;;13.52;10.05;;;6.90;99.90;;;;;;5004138;28;20026;-85
2023/02/12 04:58:40;;;;;;;14.20;10.10;;;6.90;99.90;;;;;;5015750;28;20495;-85
2023/02/12 05:01:06;;;;;;;13.73;9.98;;;7.00;99.90;;;;;;5002032;28;20030;-86
2023/02/12 05:03:31;;;;;;;14.55;10.30;;;6.90;99.90;;;;;;5016765;28;20022;-84
2023/02/12 05:06:02;;;;;;;13.80;10.18;;;6.90;99.90;;;;;;4998371;28;20128;-84
2023/02/12 05:08:28;;;;;;;14.40;9.75;;;6.90;99.90;;;;;;5015397;28;20578;-84
2023/02/12 05:10:54;;;;;;;14.48;10.15;;;6.90;99.90;;;;;;4999149;28;20017;-84
2023/02/12 05:13:19;;;;;;;14.15;9.60;;;6.90;99.90;;;;;;5002145;28;20027;-83
2023/02/12 05:15:45;;;;;;;15.98;10.88;;;6.90;99.90;;;;;;5001948;28;21272;-84
2023/02/12 05:18:10;;;;;;;14.60;10.07;;;6.90;99.90;;;;;;4998385;28;20616;-85
2023/02/12 05:20:36;;;;;;;15.00;10.27;;;6.90;99.90;;;;;;5001482;28;20022;-85
2023/02/12 05:23:01;;;;;;;15.77;10.73;;;6.90;99.90;;;;;;5020218;28;20096;-86
2023/02/12 05:25:27;;;;;;;14.85;10.85;;;6.90;99.90;;;;;;4998599;28;20022;-85
2023/02/12 05:27:55;;;;;;;13.48;10.15;;;6.90;99.90;;;;;;5004308;28;20605;-85
2023/02/12 05:30:21;;;;;;;16.27;9.93;;;6.90;99.90;;;;;;5005708;28;20029;-86
2023/02/12 05:32:46;;;;;;;12.98;9.45;;;7.00;99.90;;;;;;5002864;28;20383;-85
2023/02/12 05:35:12;;;;;;;12.80;9.55;;;7.00;99.90;;;;;;5002570;28;20616;-85
2023/02/12 05:37:37;;;;;;;13.80;10.38;;;7.00;99.90;;;;;;5002957;28;20038;-84
2023/02/12 05:40:04;;;;;;;13.18;9.50;;;7.00;99.90;;;;;;5000149;28;20476;-84
2023/02/12 05:42:30;;;;;;;12.82;9.25;;;7.00;99.90;;;;;;4999317;28;20015;-85
2023/02/12 05:44:55;;;;;;;14.25;10.40;;;7.00;99.90;;;;;;5000703;28;20048;-83
2023/02/12 05:47:21;;;;;;;15.65;10.75;;;7.00;99.90;;;;;;5002791;28;20472;-85
2023/02/12 05:49:46;;;;;;;14.05;10.88;;;7.00;99.90;;;;;;5001300;28;20045;-85
2023/02/12 05:52:12;;;;;;;15.00;10.05;;;7.00;99.90;;;;;;5001397;28;20038;-86
2023/02/12 05:54:37;;;;;;;15.05;9.85;;;7.00;99.90;;;;;;5003760;28;20041;-85
2023/02/12 05:57:05;;;;;;;14.75;10.02;;;7.00;99.90;;;;;;5003534;28;20030;-85
2023/02/12 05:59:31;;;;;;;15.27;10.50;;;7.00;99.90;;;;;;5014420;28;20026;-85
2023/02/12 06:01:56;;;;;;;14.35;10.50;;;7.00;99.90;;;;;;5000588;28;20054;-83
2023/02/12 06:04:25;;;;;;;17.17;10.18;;;7.00;99.90;;;;;;5002668;28;20105;-85
2023/02/12 06:06:54;;;;;;;13.48;9.98;;;7.00;99.90;;;;;;4997544;28;20069;-84
2023/02/12 06:09:21;;;;;;;17.27;10.57;;;7.00;99.90;;;;;;5013857;28;20212;-83
2023/02/12 06:11:47;;;;;;;15.45;10.40;;;7.00;99.90;;;;;;5002162;28;20030;-86
2023/02/12 06:14:16;;;;;;;16.05;10.20;;;7.00;99.90;;;;;;5014001;28;20030;-86
2023/02/12 06:16:45;;;;;;;14.65;10.27;;;7.00;99.90;;;;;;4999278;28;20437;-84
2023/02/12 06:19:11;;;;;;;16.35;10.27;;;7.00;99.90;;;;;;4995980;28;20429;-86
2023/02/12 06:21:36;;;;;;;13.82;9.88;;;7.00;99.90;;;;;;4999235;28;20049;-85
2023/02/12 06:24:03;;;;;;;14.15;9.65;;;7.00;99.90;;;;;;5013079;28;20040;-83
2023/02/12 06:26:29;;;;;;;13.02;9.30;;;7.00;99.90;;;;;;4997998;28;20026;-85
2023/02/12 06:28:54;;;;;;;14.27;9.98;;;7.00;99.90;;;;;;4998766;28;20084;-84
2023/02/12 06:31:29;;;;;;;14.68;10.00;;;7.00;99.90;;;;;;4997724;28;20022;-85
2023/02/12 06:34:00;;;;;;;14.18;9.57;;;7.00;99.90;;;;;;4997192;28;20037;-84
2023/02/12 06:36:26;;;;;;;14.27;9.68;;;7.00;99.90;;;;;;4997301;28;20034;-82
2023/02/12 06:38:52;;;;;;;13.50;9.65;;;7.00;99.90;;;;;;5001276;28;20148;-83
2023/02/12 06:41:18;;;;;;;14.48;10.80;;;7.00;99.90;;;;;;4997956;28;20113;-82
2023/02/12 06:43:44;;;;;;;15.32;10.63;;;7.00;99.90;;;;;;5001942;28;20046;-84
2023/02/12 06:46:10;;;;;;;16.30;10.38;;;7.00;99.90;;;;;;5013016;28;20030;-85
2023/02/12 06:48:36;;;;;;;14.15;10.20;;;7.00;99.90;;;;;;5001659;28;20069;-83
2023/02/12 06:51:05;;;;;;;15.57;10.63;;;7.00;99.90;;;;;;4995599;28;20117;-85
2023/02/12 06:53:32;;;;;;;17.50;11.85;;;7.00;99.90;;;;;;4996151;28;20034;-85
2023/02/12 06:56:00;;;;;;;14.80;10.63;;;7.00;99.90;;;;;;5012357;28;20049;-84
2023/02/12 06:58:26;;;;;;;17.33;11.02;;;7.10;99.90;;;;;;4996310;28;20026;-82
2023/02/12 07:00:51;;;;;;;13.55;9.85;;;7.10;99.90;;;;;;4997984;28;20477;-81
2023/02/12 07:03:17;;;;;;;15.32;10.85;;;7.10;99.90;;;;;;4999913;28;20543;-84
2023/02/12 07:05:43;;;;;;;12.93;9.27;;;7.10;99.90;;;;;;4998892;28;20034;-82
2023/02/12 07:08:08;;;;;;;13.75;9.75;;;7.10;99.90;;;;;;5013513;28;20053;-84
2023/02/12 07:10:34;;;;;;;14.70;10.68;;;7.10;99.90;;;;;;4999551;28;20435;-84
2023/02/12 07:12:59;;;;;;;14.43;10.02;;;7.20;99.90;;;;;;5003344;28;20018;-84
2023/02/12 07:15:25;;;;;;;13.88;9.68;;;7.10;99.90;;;;;;5002279;28;20026;-84
2023/02/12 07:17:51;;;;;;;14.15;9.85;;;7.20;99.90;;;;;;4999377;28;20483;-84
2023/02/12 07:20:16;;;;;;;14.68;10.43;;;7.20;99.90;;;;;;4996942;28;20599;-84
2023/02/12 07:22:42;;;;;;;12.90;9.35;;;7.20;99.90;;;;;;4998783;28;20058;-85
2023/02/12 07:25:08;;;;;;;14.27;10.25;;;7.20;99.90;;;;;;4999773;28;20060;-85
2023/02/12 07:27:36;;;;;;;15.02;9.93;;;7.30;99.90;;;;;;5001999;28;20034;-84
2023/02/12 07:30:05;;;;;;;14.38;9.65;;;7.30;99.90;;;;;;4999563;28;20025;-85
2023/02/12 07:32:34;;;;;;;13.38;10.00;;;7.30;99.90;;;;;;5002674;28;20031;-84
2023/02/12 07:35:02;;;;;;;15.15;9.65;;;7.30;99.90;;;;;;5002189;28;20844;-84
2023/02/12 07:37:28;;;;;;;15.05;9.65;;;7.30;99.90;;;;;;4997324;28;20084;-85
2023/02/12 07:39:53;;;;;;;12.80;9.23;;;7.40;99.90;;;;;;4997192;28;20034;-84
2023/02/12 07:42:19;;;;;;;13.05;9.57;;;7.40;99.90;;;;;;5025190;28;20005;-82
2023/02/12 07:44:45;;;;;;;13.02;8.63;;;7.40;99.90;;;;;;5023988;28;20113;-83
2023/02/12 07:47:10;;;;;;;13.98;10.00;;;7.40;99.90;;;;;;5034168;28;20042;-82
2023/02/12 07:49:36;;;;;;;11.80;8.43;;;7.30;99.90;;;;;;4999801;28;20027;-82
2023/02/12 07:52:02;;;;;;;12.65;9.07;;;7.40;99.90;;;;;;5005560;28;20026;-84
2023/02/12 07:54:27;;;;;;;15.90;10.63;;;7.40;99.90;;;;;;5002459;28;20013;-86
2023/02/12 07:56:53;;;;;;;13.90;10.25;;;7.40;99.90;;;;;;4997051;28;20038;-85
2023/02/12 07:59:21;;;;;;;15.05;10.40;;;7.40;99.90;;;;;;5000642;28;20128;-86
2023/02/12 08:01:50;;;;;;;14.30;10.75;;;7.40;99.90;;;;;;5013580;28;20060;-86
2023/02/12 08:04:19;;;;;;;14.63;10.00;;;7.50;99.90;;;;;;5002859;28;20026;-84
2023/02/12 08:06:47;;;;;;;12.52;9.15;;;7.50;99.90;;;;;;5002257;28;20050;-84
2023/02/12 08:09:18;;;;;;;14.70;10.50;;;7.50;99.90;;;;;;5000864;28;20036;-85
2023/02/12 08:11:45;;;;;;;14.73;9.90;;;7.50;99.90;;;;;;5002014;28;20038;-86
2023/02/12 08:14:12;;;;;;;15.82;10.25;;;7.60;99.90;;;;;;4999140;28;20018;-85
2023/02/12 08:16:40;;;;;;;14.57;9.88;;;7.60;99.90;;;;;;5015712;28;20070;-84
2023/02/12 08:19:06;;;;;;;13.93;10.07;;;7.60;99.90;;;;;;4999945;28;20018;-85
2023/02/12 08:21:32;;;;;;;14.68;9.98;;;7.60;99.90;;;;;;4998828;28;20045;-84
2023/02/12 08:23:58;;;;;;;15.30;10.65;;;7.60;99.90;;;;;;4998729;28;20061;-85
2023/02/12 08:26:27;;;;;;;14.35;10.10;;;7.70;99.90;;;;;;5004082;28;20091;-82
2023/02/12 08:29:08;;;;;;;13.35;10.30;;;7.70;99.90;;;;;;5016776;28;21385;-85
2023/02/12 08:31:38;;;;;;;15.45;10.10;;;7.70;99.90;;;;;;4999447;28;20143;-84
2023/02/12 08:34:05;;;;;;;14.05;9.82;;;7.70;99.90;;;;;;4998773;28;20113;-83
2023/02/12 08:36:38;;;;;;;14.10;10.10;;;7.80;99.90;;;;;;4999631;28;20045;-85
2023/02/12 08:39:05;;;;;;;14.63;10.88;;;7.80;99.90;;;;;;5014151;28;20030;-84
2023/02/12 08:41:31;;;;;;;16.58;10.45;;;7.80;99.90;;;;;;5003677;28;20054;-85
2023/02/12 08:43:59;;;;;;;16.45;10.75;;;7.80;99.90;;;;;;4999988;28;20084;-84
2023/02/12 08:46:31;;;;;;;15.45;10.05;;;7.80;99.90;;;;;;4999290;28;20026;-84
2023/02/12 08:48:59;;;;;;;13.93;10.10;;;7.90;99.90;;;;;;5001655;28;20042;-84
2023/02/12 08:51:29;;;;;;;15.13;10.88;;;7.90;99.90;;;;;;4996629;28;20080;-83
2023/02/12 08:53:57;;;;;;;14.20;10.30;;;7.90;99.90;;;;;;4996931;28;20058;-84
2023/02/12 08:56:24;;;;;;;14.80;10.30;;;7.90;99.90;;;;;;5014101;28;20409;-83
2023/02/12 08:58:50;;;;;;;14.00;10.23;;;7.90;99.90;;;;;;5003213;28;20025;-80
2023/02/12 09:01:18;;;;;;;13.82;10.13;;;8.00;99.90;;;;;;5011806;28;20791;-85
2023/02/12 09:03:45;;;;;;;14.40;10.50;;;8.00;99.90;;;;;;4996998;28;20128;-82
2023/02/12 09:06:12;;;;;;;13.65;10.02;;;8.00;99.90;;;;;;4997061;28;20045;-84
2023/02/12 09:08:38;;;;;;;15.32;10.35;;;8.10;99.90;;;;;;5001565;28;20078;-82
2023/02/12 09:11:12;;;;;;;16.15;10.48;;;8.10;99.90;;;;;;4997697;28;20049;-84
2023/02/12 09:13:39;;;;;;;14.75;10.63;;;8.10;99.90;;;;;;5012129;28;20037;-83
2023/02/12 09:16:06;;;;;;;13.55;9.85;;;8.20;99.90;;;;;;5000412;28;20026;-84
2023/02/12 09:18:32;;;;;;;14.05;9.85;;;8.20;99.90;;;;;;5002350;28;20021;-83
2023/02/12 09:21:09;;;;;;;16.40;10.70;;;8.20;99.90;;;;;;4999207;28;20058;-83
2023/02/12 09:23:36;;;;;;;13.85;9.93;;;8.20;99.90;;;;;;5000398;28;20034;-84
2023/02/12 09:26:07;;;;;;;14.73;10.65;;;8.20;99.90;;;;;;4998263;28;20050;-83
2023/02/12 09:28:33;;;;;;;15.35;10.60;;;8.20;99.90;;;;;;4996094;28;20500;-84
2023/02/12 09:31:08;;;;;;;13.95;10.35;;;8.20;99.90;;;;;;5002162;28;20559;-83
2023/02/12 09:33:34;;;;;;;13.45;10.15;;;8.20;99.90;;;;;;5005007;28;20033;-83
2023/02/12 09:36:06;;;;;;;15.77;11.43;;;8.20;99.90;;;;;;5002446;28;20045;-84
2023/02/12 09:38:31;;;;;;;15.43;10.95;;;8.20;99.90;;;;;;5001734;28;20127;-82
2023/02/12 09:41:30;;;;;;;14.55;10.98;;;8.30;99.90;;;;;;5016539;28;20456;-83
2023/02/12 09:44:06;;;;;;;17.73;12.77;;;8.30;99.90;;;;;;5002713;28;20058;-83
2023/02/12 09:46:37;;;;;;;17.05;11.20;;;8.30;99.90;;;;;;5001410;28;20079;-84
2023/02/12 09:49:28;;;;;;;17.02;11.93;;;8.40;99.90;;;;;;5004111;28;20121;-85
2023/02/12 09:51:54;;;;;;;16.92;11.48;;;8.40;99.90;;;;;;5012829;28;20037;-84
2023/02/12 09:54:24;;;;;;;17.50;12.27;;;8.40;99.90;;;;;;4998129;28;20029;-84
2023/02/12 09:56:57;;;;;;;18.92;12.65;;;8.50;99.90;;;;;;4997707;28;20022;-81
2023/02/12 09:59:26;;;;;;;19.25;13.45;;;8.50;99.90;;;;;;4997318;28;20034;-82
2023/02/12 10:01:51;;;;;;;18.98;13.50;;;8.50;99.90;;;;;;5009912;28;20045;-83
2023/02/12 10:04:17;;;;;;;19.77;13.57;;;8.50;99.90;;;;;;5001230;28;20026;-84
2023/02/12 10:06:54;;;;;;;18.75;13.60;;;8.60;99.90;;;;;;4996253;28;20484;-82
2023/02/12 10:09:26;;;;;;;19.10;13.43;;;8.50;99.90;;;;;;4995864;28;20030;-83
2023/02/12 10:12:16;;;;;;;21.40;13.75;;;8.60;99.90;;;;;;5010812;28;20057;-83
2023/02/12 10:14:48;;;;;;;20.45;13.68;;;8.60;99.90;;;;;;5010673;28;20026;-84
2023/02/12 10:17:22;;;;;;;20.38;13.95;;;8.60;99.90;;;;;;4996736;28;20042;-83
2023/02/12 10:20:07;;;;;;;23.98;15.70;;;8.60;99.90;;;;;;5009879;28;20030;-86
2023/02/12 10:22:41;;;;;;;21.35;14.93;;;8.70;99.90;;;;;;5013409;28;20034;-84
2023/02/12 10:25:35;;;;;;;20.73;14.45;;;8.70;99.90;;;;;;5012484;28;20030;-81
2023/02/12 10:28:10;;;;;;;18.85;13.00;;;8.70;99.90;;;;;;4998595;28;20046;-83
2023/02/12 10:30:44;;;;;;;20.55;13.98;;;8.80;99.90;;;;;;4997985;28;20022;-83
2023/02/12 10:33:18;;;;;;;19.20;12.35;;;8.80;99.90;;;;;;4997923;28;20375;-83
2023/02/12 10:35:50;;;;;;;19.42;12.82;;;8.80;99.90;;;;;;4999719;28;20030;-83
2023/02/12 10:38:28;;;;;;;16.75;12.30;;;8.90;99.90;;;;;;5001605;28;20038;-85
2023/02/12 10:40:56;;;;;;;19.58;12.57;;;8.90;99.90;;;;;;4996140;28;20048;-83
2023/02/12 10:43:23;;;;;;;18.42;12.52;;;9.00;99.90;;;;;;4998791;28;20054;-83
2023/02/12 10:45:49;;;;;;;17.90;12.38;;;9.00;99.90;;;;;;4997998;28;20137;-82
2023/02/12 10:48:26;;;;;;;16.88;12.38;;;9.10;99.90;;;;;;5001191;28;20088;-84
2023/02/12 10:51:07;;;;;;;17.40;11.88;;;9.00;99.90;;;;;;5011691;28;20022;-82
2023/02/12 10:53:34;;;;;;;16.80;11.27;;;9.00;99.90;;;;;;4996354;28;20456;-83
2023/02/12 10:56:18;;;;;;;18.25;12.23;;;9.10;99.90;;;;;;4996238;28;20025;-85
2023/02/12 10:58:49;;;;;;;;;;;9.10;99.90;;;;;;5013286;28;20034;-86
2023/02/12 11:01:24;;;;;;;18.15;12.30;;;9.10;99.90;;;;;;5013056;28;19944;-86
2023/02/12 11:03:50;;;;;;;19.02;12.93;;;9.10;99.90;;;;;;5013051;28;20030;-84
2023/02/12 11:06:26;;;;;;;19.60;13.05;;;9.10;99.90;;;;;;5013804;28;20038;-83
2023/02/12 11:08:52;;;;;;;17.08;11.73;;;9.10;99.90;;;;;;4994291;28;20096;-82
2023/02/12 11:11:19;;;;;;;18.05;11.93;;;9.10;99.90;;;;;;4999392;28;20023;-84
2023/02/12 11:14:05;;;;;;;15.02;10.20;;;9.20;99.90;;;;;;5012461;28;20068;-84
2023/02/12 11:16:34;;;;;;;18.05;11.63;;;9.20;99.90;;;;;;4999577;28;20041;-84
2023/02/12 11:19:17;;;;;;;17.80;11.25;;;9.20;99.90;;;;;;4997747;28;20029;-81
2023/02/12 11:21:46;;;;;;;18.90;12.52;;;9.30;99.90;;;;;;4998635;28;20069;-86
2023/02/12 11:24:34;;;;;;;19.60;12.68;;;9.30;99.90;;;;;;4999235;28;20033;-83
2023/02/12 11:27:15;;;;;;;18.38;12.20;;;9.30;99.90;;;;;;4996496;28;20084;-83
2023/02/12 11:29:43;;;;;;;20.35;13.65;;;9.20;99.90;;;;;;4997479;28;20033;-85
2023/02/12 11:32:15;;;;;;;18.88;12.32;;;9.20;99.90;;;;;;5015529;28;20392;-84
2023/02/12 11:34:41;;;;;;;18.20;11.25;;;9.30;99.90;;;;;;5014392;28;20033;-84
2023/02/12 11:37:18;;;;;;;16.77;11.50;;;9.20;99.90;;;;;;4997916;28;20042;-82
2023/02/12 11:39:49;;;;;;;18.52;11.75;;;9.30;99.90;;;;;;5014677;28;20040;-84
2023/02/12 11:42:18;;;;;;;16.77;11.07;;;9.30;99.90;;;;;;5000383;28;20095;-83
2023/02/12 11:44:56;;;;;;;19.13;12.50;;;9.30;99.90;;;;;;5004358;28;20049;-83
2023/02/12 11:47:28;;;;;;;17.02;10.90;;;9.40;99.90;;;;;;5003794;28;20038;-82
2023/02/12 11:50:27;;;;;;;18.85;12.27;;;9.30;99.90;;;;;;5002479;28;20038;-84
2023/02/12 11:52:57;;;;;;;19.10;13.45;;;9.40;99.90;;;;;;5012935;28;20053;-85
2023/02/12 11:55:26;;;;;;;19.77;12.60;;;9.40;99.90;;;;;;5020834;28;20174;-82
2023/02/12 11:58:13;;;;;;;17.48;11.68;;;9.30;99.90;;;;;;5018304;28;20022;-81
2023/02/12 12:00:45;;;;;;;16.45;11.05;;;9.40;99.90;;;;;;5018965;28;20069;-81
2023/02/12 12:03:27;;;;;;;17.38;10.88;;;9.50;99.90;;;;;;5017401;28;20022;-83
2023/02/12 12:06:18;;;;;;;16.30;10.65;;;9.50;99.90;;;;;;5014371;28;20097;-81
2023/02/12 12:08:51;;;;;;;16.42;11.25;;;9.50;99.90;;;;;;4996416;28;20579;-81
2023/02/12 12:11:23;;;;;;;15.15;10.25;;;9.60;99.90;;;;;;5000763;28;20022;-80
2023/02/12 12:14:13;;;;;;;14.73;9.18;;;9.60;99.90;;;;;;4998500;28;20084;-81
2023/02/12 12:20:09;;;;;;;17.52;11.20;;;9.70;99.90;;;;;;4998795;28;20041;-82
2023/02/12 12:23:08;;;;;;;18.10;12.50;;;9.70;99.90;;;;;;5004303;28;20046;-84
2023/02/12 12:25:46;;;;;;;18.88;12.20;;;9.70;99.90;;;;;;4998079;28;20468;-84
2023/02/12 12:28:33;;;;;;;21.13;13.40;;;9.70;99.90;;;;;;4997540;28;20030;-82
2023/02/12 12:31:18;;;;;;;19.90;12.82;;;9.70;99.90;;;;;;4999851;28;20511;-84
2023/02/12 12:33:43;;;;;;;20.95;13.60;;;9.70;99.90;;;;;;4999377;28;20117;-82
2023/02/12 12:36:12;;;;;;;19.30;12.65;;;9.70;99.90;;;;;;4999198;28;20034;-83
2023/02/12 12:38:46;;;;;;;18.67;12.23;;;9.70;99.90;;;;;;5015296;28;20025;-84
2023/02/12 12:41:21;;;;;;;15.50;11.02;;;9.70;99.90;;;;;;4999069;28;20041;-86
2023/02/12 12:44:09;;;;;;;17.55;11.85;;;9.80;99.90;;;;;;5000962;28;20045;-82
2023/02/12 12:46:40;;;;;;;18.13;11.20;;;9.70;99.90;;;;;;5011429;28;20029;-80
2023/02/12 12:49:15;;;;;;;18.10;11.70;;;9.70;99.90;;;;;;4995618;28;20527;-82
2023/02/12 12:52:11;;;;;;;17.20;11.60;;;9.80;99.90;;;;;;5010851;28;20050;-80
2023/02/12 12:55:02;;;;;;;15.60;10.63;;;9.80;99.90;;;;;;4996252;28;20108;-81
2023/02/12 12:57:49;;;;;;;14.55;10.40;;;9.80;99.90;;;;;;4989380;28;20037;-81
2023/02/12 13:00:30;;;;;;;18.63;11.77;;;9.80;99.90;;;;;;5012126;28;20084;-83
2023/02/12 13:03:20;;;;;;;16.25;10.20;;;9.70;99.90;;;;;;4996168;28;20100;-80
2023/02/12 13:06:11;;;;;;;13.93;10.00;;;9.70;99.90;;;;;;4995786;28;20052;-80
2023/02/12 13:08:55;;;;;;;15.85;9.88;;;9.70;99.90;;;;;;5015438;28;20045;-77
2023/02/12 13:11:45;;;;;;;13.38;9.00;;;9.80;99.90;;;;;;4997742;28;20139;-80